sensor_id;sensor_type;location;lat;lon;timestamp;P1;durP1;ratioP1;P2;durP2;ratioP2
48897;SDS011;34713;50.038;20.000;2024-01-15T00:00:59;6.60;;;3.90;;
48897;SDS011;34713;50.038;20.000;2024-01-15T00:03:46;5.80;;;3.70;;
48897;SDS011;34713;50.038;20.000;2024-01-15T00:06:13;7.90;;;4.80;;
48897;SDS011;34713;50.038;20.000;2024-01-15T00:08:39;6.60;;;3.80;;
48897;SDS011;34713;50.038;20.000;2024-01-15T00:11:06;7.50;;;4.40;;
48897;SDS011;34713;50.038;20.000;2024-01-15T00:13:32;6.90;;;4.20;;
48897;SDS011;34713;50.038;20.000;2024-01-15T00:15:59;6.80;;;4.00;;
48897;SDS011;34713;50.038;20.000;2024-01-15T00:18:26;7.00;;;4.10;;
48897;SDS011;34713;50.038;20.000;2024-01-15T00:20:53;8.20;;;4.20;;
48897;SDS011;34713;50.038;20.000;2024-01-15T00:23:19;7.50;;;4.30;;
48897;SDS011;34713;50.038;20.000;2024-01-15T00:25:46;6.40;;;4.00;;
48897;SDS011;34713;50.038;20.000;2024-01-15T00:28:13;6.80;;;4.10;;
48897;SDS011;34713;50.038;20.000;2024-01-15T00:30:39;6.90;;;4.20;;
48897;SDS011;34713;50.038;20.000;2024-01-15T00:33:06;6.60;;;4.40;;
48897;SDS011;34713;50.038;20.000;2024-01-15T00:35:33;7.10;;;4.20;;
48897;SDS011;34713;50.038;20.000;2024-01-15T00:38:00;7.90;;;4.50;;
48897;SDS011;34713;50.038;20.000;2024-01-15T00:40:27;7.50;;;4.10;;
48897;SDS011;34713;50.038;20.000;2024-01-15T00:42:54;6.40;;;3.70;;
48897;SDS011;34713;50.038;20.000;2024-01-15T00:45:21;7.20;;;4.10;;
48897;SDS011;34713;50.038;20.000;2024-01-15T00:47:48;6.80;;;4.20;;
48897;SDS011;34713;50.038;20.000;2024-01-15T00:50:15;6.00;;;3.90;;
48897;SDS011;34713;50.038;20.000;2024-01-15T00:52:41;8.10;;;4.30;;
48897;SDS011;34713;50.038;20.000;2024-01-15T00:55:08;6.40;;;3.70;;
48897;SDS011;34713;50.038;20.000;2024-01-15T00:57:35;6.50;;;3.70;;
48897;SDS011;34713;50.038;20.000;2024-01-15T01:00:01;8.80;;;4.00;;
48897;SDS011;34713;50.038;20.000;2024-01-15T01:02:28;6.20;;;3.90;;
48897;SDS011;34713;50.038;20.000;2024-01-15T01:04:55;5.90;;;4.30;;
48897;SDS011;34713;50.038;20.000;2024-01-15T01:07:22;6.50;;;4.30;;
48897;SDS011;34713;50.038;20.000;2024-01-15T01:09:48;5.80;;;3.50;;
48897;SDS011;34713;50.038;20.000;2024-01-15T01:12:15;7.90;;;4.30;;
48897;SDS011;34713;50.038;20.000;2024-01-15T01:14:43;6.00;;;3.90;;
48897;SDS011;34713;50.038;20.000;2024-01-15T01:17:09;7.50;;;4.20;;
48897;SDS011;34713;50.038;20.000;2024-01-15T01:19:36;6.30;;;3.90;;
48897;SDS011;34713;50.038;20.000;2024-01-15T01:22:03;6.70;;;4.20;;
48897;SDS011;34713;50.038;20.000;2024-01-15T01:24:29;7.70;;;4.40;;
48897;SDS011;34713;50.038;20.000;2024-01-15T01:26:56;6.30;;;3.90;;
48897;SDS011;34713;50.038;20.000;2024-01-15T01:29:23;6.90;;;4.10;;
48897;SDS011;34713;50.038;20.000;2024-01-15T01:31:49;7.80;;;4.00;;
48897;SDS011;34713;50.038;20.000;2024-01-15T01:34:16;8.10;;;4.00;;
48897;SDS011;34713;50.038;20.000;2024-01-15T01:36:43;7.90;;;4.40;;
48897;SDS011;34713;50.038;20.000;2024-01-15T01:39:10;7.30;;;4.20;;
48897;SDS011;34713;50.038;20.000;2024-01-15T01:41:37;6.80;;;3.80;;
48897;SDS011;34713;50.038;20.000;2024-01-15T01:44:12;6.50;;;3.60;;
48897;SDS011;34713;50.038;20.000;2024-01-15T01:46:41;8.30;;;4.20;;
48897;SDS011;34713;50.038;20.000;2024-01-15T01:49:08;5.50;;;3.60;;
48897;SDS011;34713;50.038;20.000;2024-01-15T01:51:35;6.60;;;4.30;;
48897;SDS011;34713;50.038;20.000;2024-01-15T01:54:04;6.80;;;3.50;;
48897;SDS011;34713;50.038;20.000;2024-01-15T01:56:31;6.90;;;3.50;;
48897;SDS011;34713;50.038;20.000;2024-01-15T01:58:59;5.70;;;3.30;;
48897;SDS011;34713;50.038;20.000;2024-01-15T02:01:26;5.50;;;3.00;;
48897;SDS011;34713;50.038;20.000;2024-01-15T02:03:53;6.10;;;3.40;;
48897;SDS011;34713;50.038;20.000;2024-01-15T02:06:23;5.40;;;3.30;;
48897;SDS011;34713;50.038;20.000;2024-01-15T02:08:50;4.80;;;3.30;;
48897;SDS011;34713;50.038;20.000;2024-01-15T02:11:16;6.40;;;3.70;;
48897;SDS011;34713;50.038;20.000;2024-01-15T02:13:43;6.10;;;3.80;;
48897;SDS011;34713;50.038;20.000;2024-01-15T02:16:10;6.50;;;3.70;;
48897;SDS011;34713;50.038;20.000;2024-01-15T02:18:43;6.60;;;3.50;;
48897;SDS011;34713;50.038;20.000;2024-01-15T02:21:11;6.10;;;3.70;;
48897;SDS011;34713;50.038;20.000;2024-01-15T02:23:38;8.00;;;3.40;;
48897;SDS011;34713;50.038;20.000;2024-01-15T02:26:05;5.40;;;3.50;;
48897;SDS011;34713;50.038;20.000;2024-01-15T02:28:32;6.30;;;3.10;;
48897;SDS011;34713;50.038;20.000;2024-01-15T02:31:00;4.30;;;2.90;;
48897;SDS011;34713;50.038;20.000;2024-01-15T02:33:26;5.10;;;2.90;;
48897;SDS011;34713;50.038;20.000;2024-01-15T02:35:53;5.00;;;2.70;;
48897;SDS011;34713;50.038;20.000;2024-01-15T02:38:20;5.50;;;3.10;;
48897;SDS011;34713;50.038;20.000;2024-01-15T02:40:46;5.00;;;2.80;;
48897;SDS011;34713;50.038;20.000;2024-01-15T02:43:16;4.50;;;2.60;;
48897;SDS011;34713;50.038;20.000;2024-01-15T02:45:45;4.30;;;2.40;;
48897;SDS011;34713;50.038;20.000;2024-01-15T02:48:13;4.50;;;2.70;;
48897;SDS011;34713;50.038;20.000;2024-01-15T02:50:39;5.20;;;3.00;;
48897;SDS011;34713;50.038;20.000;2024-01-15T02:53:06;4.40;;;2.90;;
48897;SDS011;34713;50.038;20.000;2024-01-15T02:55:33;4.50;;;2.80;;
48897;SDS011;34713;50.038;20.000;2024-01-15T02:57:59;5.40;;;3.10;;
48897;SDS011;34713;50.038;20.000;2024-01-15T03:00:26;5.10;;;3.10;;
48897;SDS011;34713;50.038;20.000;2024-01-15T03:02:53;5.10;;;2.70;;
48897;SDS011;34713;50.038;20.000;2024-01-15T03:05:21;4.60;;;2.80;;
48897;SDS011;34713;50.038;20.000;2024-01-15T03:07:47;4.40;;;2.70;;
48897;SDS011;34713;50.038;20.000;2024-01-15T03:10:14;5.70;;;3.10;;
48897;SDS011;34713;50.038;20.000;2024-01-15T03:12:41;5.90;;;2.90;;
48897;SDS011;34713;50.038;20.000;2024-01-15T03:15:19;6.50;;;3.10;;
48897;SDS011;34713;50.038;20.000;2024-01-15T03:17:45;4.80;;;2.80;;
48897;SDS011;34713;50.038;20.000;2024-01-15T03:20:12;4.40;;;2.70;;
48897;SDS011;34713;50.038;20.000;2024-01-15T03:22:39;5.10;;;3.30;;
48897;SDS011;34713;50.038;20.000;2024-01-15T03:25:13;4.70;;;3.30;;
48897;SDS011;34713;50.038;20.000;2024-01-15T03:27:40;4.70;;;2.70;;
48897;SDS011;34713;50.038;20.000;2024-01-15T03:30:06;5.40;;;2.80;;
48897;SDS011;34713;50.038;20.000;2024-01-15T03:32:34;5.40;;;3.10;;
48897;SDS011;34713;50.038;20.000;2024-01-15T03:35:00;5.70;;;3.50;;
48897;SDS011;34713;50.038;20.000;2024-01-15T03:37:27;6.60;;;3.20;;
48897;SDS011;34713;50.038;20.000;2024-01-15T03:40:03;3.80;;;2.60;;
48897;SDS011;34713;50.038;20.000;2024-01-15T03:42:30;4.70;;;2.60;;
48897;SDS011;34713;50.038;20.000;2024-01-15T03:44:56;5.70;;;2.80;;
48897;SDS011;34713;50.038;20.000;2024-01-15T03:47:23;4.70;;;2.80;;
48897;SDS011;34713;50.038;20.000;2024-01-15T03:49:50;4.90;;;2.90;;
48897;SDS011;34713;50.038;20.000;2024-01-15T03:52:17;4.30;;;2.60;;
48897;SDS011;34713;50.038;20.000;2024-01-15T03:54:44;5.60;;;2.80;;
48897;SDS011;34713;50.038;20.000;2024-01-15T03:57:10;4.10;;;2.60;;
48897;SDS011;34713;50.038;20.000;2024-01-15T03:59:37;4.40;;;2.80;;
48897;SDS011;34713;50.038;20.000;2024-01-15T04:02:04;4.70;;;3.00;;
48897;SDS011;34713;50.038;20.000;2024-01-15T04:04:31;2.90;;;2.00;;
48897;SDS011;34713;50.038;20.000;2024-01-15T04:06:57;4.00;;;2.30;;
48897;SDS011;34713;50.038;20.000;2024-01-15T04:09:24;4.60;;;2.50;;
48897;SDS011;34713;50.038;20.000;2024-01-15T04:11:50;4.50;;;2.80;;
48897;SDS011;34713;50.038;20.000;2024-01-15T04:14:17;4.70;;;2.90;;
48897;SDS011;34713;50.038;20.000;2024-01-15T04:16:44;4.10;;;2.40;;
48897;SDS011;34713;50.038;20.000;2024-01-15T04:19:10;3.30;;;2.30;;
48897;SDS011;34713;50.038;20.000;2024-01-15T04:21:37;3.50;;;2.00;;
48897;SDS011;34713;50.038;20.000;2024-01-15T04:24:04;3.20;;;2.20;;
48897;SDS011;34713;50.038;20.000;2024-01-15T04:26:30;4.20;;;2.40;;
48897;SDS011;34713;50.038;20.000;2024-01-15T04:28:57;4.40;;;2.30;;
48897;SDS011;34713;50.038;20.000;2024-01-15T04:31:25;3.60;;;2.40;;
48897;SDS011;34713;50.038;20.000;2024-01-15T04:33:53;4.40;;;3.00;;
48897;SDS011;34713;50.038;20.000;2024-01-15T04:36:20;3.70;;;2.10;;
48897;SDS011;34713;50.038;20.000;2024-01-15T04:38:47;3.90;;;2.30;;
48897;SDS011;34713;50.038;20.000;2024-01-15T04:41:13;3.40;;;2.40;;
48897;SDS011;34713;50.038;20.000;2024-01-15T04:43:40;4.30;;;2.40;;
48897;SDS011;34713;50.038;20.000;2024-01-15T04:46:07;4.30;;;2.30;;
48897;SDS011;34713;50.038;20.000;2024-01-15T04:48:33;4.20;;;2.30;;
48897;SDS011;34713;50.038;20.000;2024-01-15T04:51:00;5.80;;;2.80;;
48897;SDS011;34713;50.038;20.000;2024-01-15T04:53:30;5.20;;;2.90;;
48897;SDS011;34713;50.038;20.000;2024-01-15T04:55:57;3.60;;;2.30;;
48897;SDS011;34713;50.038;20.000;2024-01-15T04:58:24;5.20;;;2.50;;
48897;SDS011;34713;50.038;20.000;2024-01-15T05:00:53;4.40;;;2.30;;
48897;SDS011;34713;50.038;20.000;2024-01-15T05:03:20;3.50;;;2.30;;
48897;SDS011;34713;50.038;20.000;2024-01-15T05:11:07;4.80;;;2.70;;
48897;SDS011;34713;50.038;20.000;2024-01-15T05:13:34;4.30;;;2.40;;
48897;SDS011;34713;50.038;20.000;2024-01-15T05:16:21;5.10;;;2.40;;
48897;SDS011;34713;50.038;20.000;2024-01-15T05:19:12;3.60;;;2.40;;
48897;SDS011;34713;50.038;20.000;2024-01-15T05:21:38;4.50;;;2.60;;
48897;SDS011;34713;50.038;20.000;2024-01-15T05:24:05;4.70;;;2.70;;
48897;SDS011;34713;50.038;20.000;2024-01-15T05:26:32;4.00;;;2.10;;
48897;SDS011;34713;50.038;20.000;2024-01-15T05:28:59;4.30;;;2.40;;
48897;SDS011;34713;50.038;20.000;2024-01-15T05:31:25;3.50;;;2.10;;
48897;SDS011;34713;50.038;20.000;2024-01-15T05:33:52;3.90;;;2.20;;
48897;SDS011;34713;50.038;20.000;2024-01-15T05:36:19;4.90;;;2.20;;
48897;SDS011;34713;50.038;20.000;2024-01-15T05:38:46;3.70;;;2.20;;
48897;SDS011;34713;50.038;20.000;2024-01-15T05:41:13;5.50;;;2.80;;
48897;SDS011;34713;50.038;20.000;2024-01-15T05:43:39;5.30;;;2.70;;
48897;SDS011;34713;50.038;20.000;2024-01-15T05:46:06;4.50;;;2.30;;
48897;SDS011;34713;50.038;20.000;2024-01-15T05:48:33;4.00;;;2.90;;
48897;SDS011;34713;50.038;20.000;2024-01-15T05:51:00;3.80;;;2.20;;
48897;SDS011;34713;50.038;20.000;2024-01-15T05:53:27;3.80;;;2.30;;
48897;SDS011;34713;50.038;20.000;2024-01-15T05:55:54;4.40;;;2.30;;
48897;SDS011;34713;50.038;20.000;2024-01-15T05:58:22;3.70;;;2.30;;
48897;SDS011;34713;50.038;20.000;2024-01-15T06:00:49;4.00;;;2.30;;
48897;SDS011;34713;50.038;20.000;2024-01-15T06:03:16;4.00;;;2.60;;
48897;SDS011;34713;50.038;20.000;2024-01-15T06:05:42;6.00;;;2.50;;
48897;SDS011;34713;50.038;20.000;2024-01-15T06:08:10;3.40;;;2.30;;
48897;SDS011;34713;50.038;20.000;2024-01-15T06:10:45;3.50;;;2.40;;
48897;SDS011;34713;50.038;20.000;2024-01-15T06:13:12;6.30;;;2.70;;
48897;SDS011;34713;50.038;20.000;2024-01-15T06:15:41;4.30;;;2.30;;
48897;SDS011;34713;50.038;20.000;2024-01-15T06:18:08;5.60;;;3.00;;
48897;SDS011;34713;50.038;20.000;2024-01-15T06:20:34;3.60;;;2.30;;
48897;SDS011;34713;50.038;20.000;2024-01-15T06:23:01;5.50;;;3.10;;
48897;SDS011;34713;50.038;20.000;2024-01-15T06:25:28;6.50;;;3.10;;
48897;SDS011;34713;50.038;20.000;2024-01-15T06:27:54;5.60;;;3.40;;
48897;SDS011;34713;50.038;20.000;2024-01-15T06:30:21;6.40;;;3.10;;
48897;SDS011;34713;50.038;20.000;2024-01-15T06:32:47;5.60;;;3.20;;
48897;SDS011;34713;50.038;20.000;2024-01-15T06:35:14;6.30;;;3.40;;
48897;SDS011;34713;50.038;20.000;2024-01-15T06:37:41;5.20;;;3.40;;
48897;SDS011;34713;50.038;20.000;2024-01-15T06:40:08;6.70;;;4.20;;
48897;SDS011;34713;50.038;20.000;2024-01-15T06:42:35;7.10;;;4.10;;
48897;SDS011;34713;50.038;20.000;2024-01-15T06:45:01;7.00;;;3.50;;
48897;SDS011;34713;50.038;20.000;2024-01-15T06:47:28;5.70;;;3.30;;
48897;SDS011;34713;50.038;20.000;2024-01-15T06:49:55;5.80;;;3.30;;
48897;SDS011;34713;50.038;20.000;2024-01-15T06:52:25;5.60;;;3.40;;
48897;SDS011;34713;50.038;20.000;2024-01-15T06:54:52;5.10;;;3.40;;
48897;SDS011;34713;50.038;20.000;2024-01-15T06:57:18;4.80;;;3.40;;
48897;SDS011;34713;50.038;20.000;2024-01-15T06:59:46;5.10;;;3.70;;
48897;SDS011;34713;50.038;20.000;2024-01-15T07:02:13;6.70;;;3.70;;
48897;SDS011;34713;50.038;20.000;2024-01-15T07:04:39;8.40;;;4.20;;
48897;SDS011;34713;50.038;20.000;2024-01-15T07:07:06;5.60;;;3.60;;
48897;SDS011;34713;50.038;20.000;2024-01-15T07:09:32;10.30;;;5.00;;
48897;SDS011;34713;50.038;20.000;2024-01-15T07:11:59;5.80;;;3.90;;
48897;SDS011;34713;50.038;20.000;2024-01-15T07:14:28;7.10;;;4.00;;
48897;SDS011;34713;50.038;20.000;2024-01-15T07:16:55;5.50;;;3.60;;
48897;SDS011;34713;50.038;20.000;2024-01-15T07:19:21;7.50;;;4.20;;
48897;SDS011;34713;50.038;20.000;2024-01-15T07:21:50;6.70;;;4.10;;
48897;SDS011;34713;50.038;20.000;2024-01-15T07:24:17;7.10;;;4.40;;
48897;SDS011;34713;50.038;20.000;2024-01-15T07:26:44;6.20;;;3.60;;
48897;SDS011;34713;50.038;20.000;2024-01-15T07:29:11;6.40;;;4.00;;
48897;SDS011;34713;50.038;20.000;2024-01-15T07:31:37;6.30;;;4.00;;
48897;SDS011;34713;50.038;20.000;2024-01-15T07:34:04;6.80;;;4.20;;
48897;SDS011;34713;50.038;20.000;2024-01-15T07:36:31;7.40;;;3.90;;
48897;SDS011;34713;50.038;20.000;2024-01-15T07:38:58;5.70;;;3.60;;
48897;SDS011;34713;50.038;20.000;2024-01-15T07:41:24;7.70;;;5.00;;
48897;SDS011;34713;50.038;20.000;2024-01-15T07:43:51;7.50;;;4.40;;
48897;SDS011;34713;50.038;20.000;2024-01-15T07:46:18;7.80;;;4.30;;
48897;SDS011;34713;50.038;20.000;2024-01-15T07:48:45;7.30;;;4.10;;
48897;SDS011;34713;50.038;20.000;2024-01-15T07:51:12;7.70;;;4.80;;
48897;SDS011;34713;50.038;20.000;2024-01-15T07:53:38;5.70;;;3.70;;
48897;SDS011;34713;50.038;20.000;2024-01-15T07:56:05;6.70;;;3.50;;
48897;SDS011;34713;50.038;20.000;2024-01-15T07:58:31;6.40;;;4.00;;
48897;SDS011;34713;50.038;20.000;2024-01-15T08:00:58;7.30;;;3.90;;
48897;SDS011;34713;50.038;20.000;2024-01-15T08:03:25;10.10;;;4.50;;
48897;SDS011;34713;50.038;20.000;2024-01-15T08:05:51;6.20;;;4.20;;
48897;SDS011;34713;50.038;20.000;2024-01-15T08:08:19;7.40;;;4.50;;
48897;SDS011;34713;50.038;20.000;2024-01-15T08:10:47;6.70;;;4.20;;
48897;SDS011;34713;50.038;20.000;2024-01-15T08:13:14;7.70;;;4.30;;
48897;SDS011;34713;50.038;20.000;2024-01-15T08:15:41;5.90;;;3.90;;
48897;SDS011;34713;50.038;20.000;2024-01-15T08:18:08;6.80;;;4.90;;
48897;SDS011;34713;50.038;20.000;2024-01-15T08:20:35;6.00;;;3.80;;
48897;SDS011;34713;50.038;20.000;2024-01-15T08:23:02;8.80;;;5.00;;
48897;SDS011;34713;50.038;20.000;2024-01-15T08:25:29;7.50;;;4.50;;
48897;SDS011;34713;50.038;20.000;2024-01-15T08:27:56;7.50;;;4.80;;
48897;SDS011;34713;50.038;20.000;2024-01-15T08:30:23;7.40;;;4.50;;
48897;SDS011;34713;50.038;20.000;2024-01-15T08:32:54;6.60;;;4.30;;
48897;SDS011;34713;50.038;20.000;2024-01-15T08:35:21;7.80;;;4.50;;
48897;SDS011;34713;50.038;20.000;2024-01-15T08:37:49;8.00;;;4.70;;
48897;SDS011;34713;50.038;20.000;2024-01-15T08:40:16;7.10;;;4.60;;
48897;SDS011;34713;50.038;20.000;2024-01-15T08:42:43;8.50;;;4.90;;
48897;SDS011;34713;50.038;20.000;2024-01-15T08:45:10;7.50;;;4.80;;
48897;SDS011;34713;50.038;20.000;2024-01-15T08:47:36;7.50;;;4.70;;
48897;SDS011;34713;50.038;20.000;2024-01-15T08:50:04;9.10;;;5.20;;
48897;SDS011;34713;50.038;20.000;2024-01-15T08:52:31;8.70;;;5.40;;
48897;SDS011;34713;50.038;20.000;2024-01-15T08:54:58;8.70;;;5.20;;
48897;SDS011;34713;50.038;20.000;2024-01-15T08:57:25;10.30;;;5.50;;
48897;SDS011;34713;50.038;20.000;2024-01-15T08:59:52;9.20;;;6.10;;
48897;SDS011;34713;50.038;20.000;2024-01-15T09:02:18;9.40;;;6.00;;
48897;SDS011;34713;50.038;20.000;2024-01-15T09:04:47;10.60;;;5.90;;
48897;SDS011;34713;50.038;20.000;2024-01-15T09:07:14;11.40;;;5.90;;
48897;SDS011;34713;50.038;20.000;2024-01-15T09:09:41;9.80;;;5.30;;
48897;SDS011;34713;50.038;20.000;2024-01-15T09:12:08;11.00;;;6.10;;
48897;SDS011;34713;50.038;20.000;2024-01-15T09:14:35;9.30;;;6.50;;
48897;SDS011;34713;50.038;20.000;2024-01-15T09:17:03;10.60;;;6.00;;
48897;SDS011;34713;50.038;20.000;2024-01-15T09:19:31;11.70;;;6.10;;
48897;SDS011;34713;50.038;20.000;2024-01-15T09:21:57;10.80;;;5.40;;
48897;SDS011;34713;50.038;20.000;2024-01-15T09:24:24;8.50;;;5.10;;
48897;SDS011;34713;50.038;20.000;2024-01-15T09:26:50;9.20;;;5.70;;
48897;SDS011;34713;50.038;20.000;2024-01-15T09:29:17;10.00;;;5.80;;
48897;SDS011;34713;50.038;20.000;2024-01-15T09:31:44;9.60;;;5.70;;
48897;SDS011;34713;50.038;20.000;2024-01-15T09:34:11;9.30;;;6.10;;
48897;SDS011;34713;50.038;20.000;2024-01-15T09:36:40;8.10;;;5.30;;
48897;SDS011;34713;50.038;20.000;2024-01-15T09:39:08;8.20;;;5.20;;
48897;SDS011;34713;50.038;20.000;2024-01-15T09:41:37;9.70;;;5.70;;
48897;SDS011;34713;50.038;20.000;2024-01-15T09:44:04;8.60;;;5.00;;
48897;SDS011;34713;50.038;20.000;2024-01-15T09:46:34;10.00;;;5.90;;
48897;SDS011;34713;50.038;20.000;2024-01-15T09:49:01;9.60;;;5.60;;
48897;SDS011;34713;50.038;20.000;2024-01-15T09:51:30;8.70;;;5.20;;
48897;SDS011;34713;50.038;20.000;2024-01-15T09:53:57;9.80;;;5.50;;
48897;SDS011;34713;50.038;20.000;2024-01-15T09:56:24;9.20;;;5.40;;
48897;SDS011;34713;50.038;20.000;2024-01-15T09:58:51;10.60;;;6.00;;
48897;SDS011;34713;50.038;20.000;2024-01-15T10:01:22;10.30;;;6.40;;
48897;SDS011;34713;50.038;20.000;2024-01-15T10:03:49;8.60;;;5.90;;
48897;SDS011;34713;50.038;20.000;2024-01-15T10:06:16;9.80;;;5.90;;
48897;SDS011;34713;50.038;20.000;2024-01-15T10:08:47;8.80;;;5.90;;
48897;SDS011;34713;50.038;20.000;2024-01-15T10:11:15;10.10;;;6.40;;
48897;SDS011;34713;50.038;20.000;2024-01-15T10:13:48;9.30;;;5.80;;
48897;SDS011;34713;50.038;20.000;2024-01-15T10:16:19;10.70;;;6.20;;
48897;SDS011;34713;50.038;20.000;2024-01-15T10:18:46;9.80;;;6.40;;
48897;SDS011;34713;50.038;20.000;2024-01-15T10:21:12;10.50;;;6.50;;
48897;SDS011;34713;50.038;20.000;2024-01-15T10:23:41;10.30;;;6.00;;
48897;SDS011;34713;50.038;20.000;2024-01-15T10:26:08;12.60;;;6.90;;
48897;SDS011;34713;50.038;20.000;2024-01-15T10:28:34;10.30;;;6.30;;
48897;SDS011;34713;50.038;20.000;2024-01-15T10:31:01;11.50;;;6.90;;
48897;SDS011;34713;50.038;20.000;2024-01-15T10:33:28;10.70;;;6.70;;
48897;SDS011;34713;50.038;20.000;2024-01-15T10:35:55;10.10;;;6.00;;
48897;SDS011;34713;50.038;20.000;2024-01-15T10:38:26;10.90;;;6.70;;
48897;SDS011;34713;50.038;20.000;2024-01-15T10:40:56;12.50;;;7.10;;
48897;SDS011;34713;50.038;20.000;2024-01-15T10:43:23;10.50;;;6.20;;
48897;SDS011;34713;50.038;20.000;2024-01-15T10:45:50;10.90;;;6.90;;
48897;SDS011;34713;50.038;20.000;2024-01-15T10:48:18;10.00;;;6.60;;
48897;SDS011;34713;50.038;20.000;2024-01-15T10:50:46;10.00;;;5.80;;
48897;SDS011;34713;50.038;20.000;2024-01-15T10:53:14;10.30;;;7.00;;
48897;SDS011;34713;50.038;20.000;2024-01-15T10:55:42;10.60;;;6.20;;
48897;SDS011;34713;50.038;20.000;2024-01-15T10:58:09;12.60;;;6.30;;
48897;SDS011;34713;50.038;20.000;2024-01-15T11:00:36;12.40;;;6.70;;
48897;SDS011;34713;50.038;20.000;2024-01-15T11:03:04;10.70;;;6.70;;
48897;SDS011;34713;50.038;20.000;2024-01-15T11:05:44;11.60;;;6.70;;
48897;SDS011;34713;50.038;20.000;2024-01-15T11:08:12;13.90;;;7.40;;
48897;SDS011;34713;50.038;20.000;2024-01-15T11:10:43;13.30;;;7.10;;
48897;SDS011;34713;50.038;20.000;2024-01-15T11:13:19;13.80;;;7.30;;
48897;SDS011;34713;50.038;20.000;2024-01-15T11:18:23;9.60;;;6.30;;
48897;SDS011;34713;50.038;20.000;2024-01-15T11:27:01;12.30;;;7.10;;
48897;SDS011;34713;50.038;20.000;2024-01-15T11:29:08;10.70;;;6.60;;
48897;SDS011;34713;50.038;20.000;2024-01-15T11:34:03;10.50;;;6.20;;
48897;SDS011;34713;50.038;20.000;2024-01-15T11:42:03;9.90;;;5.80;;
48897;SDS011;34713;50.038;20.000;2024-01-15T11:44:30;12.40;;;6.50;;
48897;SDS011;34713;50.038;20.000;2024-01-15T11:46:57;11.10;;;6.30;;
48897;SDS011;34713;50.038;20.000;2024-01-15T11:55:11;9.90;;;6.40;;
48897;SDS011;34713;50.038;20.000;2024-01-15T11:57:42;12.00;;;6.60;;
48897;SDS011;34713;50.038;20.000;2024-01-15T12:00:17;10.90;;;6.80;;
48897;SDS011;34713;50.038;20.000;2024-01-15T12:02:45;10.60;;;6.60;;
48897;SDS011;34713;50.038;20.000;2024-01-15T12:05:14;10.70;;;7.00;;
48897;SDS011;34713;50.038;20.000;2024-01-15T12:07:42;11.60;;;6.90;;
48897;SDS011;34713;50.038;20.000;2024-01-15T12:10:13;12.50;;;6.90;;
48897;SDS011;34713;50.038;20.000;2024-01-15T12:12:44;13.70;;;7.50;;
48897;SDS011;34713;50.038;20.000;2024-01-15T12:15:18;11.50;;;7.50;;
48897;SDS011;34713;50.038;20.000;2024-01-15T12:17:59;10.80;;;6.70;;
48897;SDS011;34713;50.038;20.000;2024-01-15T12:20:27;10.80;;;6.60;;
48897;SDS011;34713;50.038;20.000;2024-01-15T12:22:57;11.80;;;6.70;;
48897;SDS011;34713;50.038;20.000;2024-01-15T12:25:24;12.50;;;6.80;;
48897;SDS011;34713;50.038;20.000;2024-01-15T12:27:53;9.80;;;7.10;;
48897;SDS011;34713;50.038;20.000;2024-01-15T12:30:20;9.20;;;6.40;;
48897;SDS011;34713;50.038;20.000;2024-01-15T12:32:47;12.90;;;6.80;;
48897;SDS011;34713;50.038;20.000;2024-01-15T12:35:14;11.50;;;6.90;;
48897;SDS011;34713;50.038;20.000;2024-01-15T12:37:42;11.00;;;6.30;;
48897;SDS011;34713;50.038;20.000;2024-01-15T12:40:09;11.30;;;6.10;;
48897;SDS011;34713;50.038;20.000;2024-01-15T12:42:36;11.10;;;6.50;;
48897;SDS011;34713;50.038;20.000;2024-01-15T12:45:05;9.90;;;6.80;;
48897;SDS011;34713;50.038;20.000;2024-01-15T12:47:32;9.60;;;6.60;;
48897;SDS011;34713;50.038;20.000;2024-01-15T12:49:59;11.60;;;6.30;;
48897;SDS011;34713;50.038;20.000;2024-01-15T12:52:26;10.50;;;6.40;;
48897;SDS011;34713;50.038;20.000;2024-01-15T12:54:57;9.30;;;6.60;;
48897;SDS011;34713;50.038;20.000;2024-01-15T12:57:23;9.90;;;6.30;;
48897;SDS011;34713;50.038;20.000;2024-01-15T12:59:50;11.60;;;6.30;;
48897;SDS011;34713;50.038;20.000;2024-01-15T13:02:20;10.20;;;6.00;;
48897;SDS011;34713;50.038;20.000;2024-01-15T13:04:46;10.00;;;6.20;;
48897;SDS011;34713;50.038;20.000;2024-01-15T13:07:13;10.20;;;6.20;;
48897;SDS011;34713;50.038;20.000;2024-01-15T13:09:40;10.40;;;6.10;;
48897;SDS011;34713;50.038;20.000;2024-01-15T13:12:07;10.80;;;6.30;;
48897;SDS011;34713;50.038;20.000;2024-01-15T13:14:34;9.20;;;5.60;;
48897;SDS011;34713;50.038;20.000;2024-01-15T13:17:01;10.90;;;6.60;;
48897;SDS011;34713;50.038;20.000;2024-01-15T13:19:29;13.20;;;5.70;;
48897;SDS011;34713;50.038;20.000;2024-01-15T13:21:58;10.00;;;5.80;;
48897;SDS011;34713;50.038;20.000;2024-01-15T13:24:29;8.80;;;5.50;;
48897;SDS011;34713;50.038;20.000;2024-01-15T13:26:56;10.50;;;6.60;;
48897;SDS011;34713;50.038;20.000;2024-01-15T13:29:23;11.30;;;5.90;;
48897;SDS011;34713;50.038;20.000;2024-01-15T13:31:50;10.40;;;6.00;;
48897;SDS011;34713;50.038;20.000;2024-01-15T13:34:17;9.90;;;6.40;;
48897;SDS011;34713;50.038;20.000;2024-01-15T13:36:43;10.20;;;6.00;;
48897;SDS011;34713;50.038;20.000;2024-01-15T13:39:10;11.10;;;6.10;;
48897;SDS011;34713;50.038;20.000;2024-01-15T13:41:37;11.00;;;6.10;;
48897;SDS011;34713;50.038;20.000;2024-01-15T13:44:04;9.70;;;6.00;;
48897;SDS011;34713;50.038;20.000;2024-01-15T13:46:30;10.50;;;6.00;;
48897;SDS011;34713;50.038;20.000;2024-01-15T13:48:57;11.10;;;6.20;;
48897;SDS011;34713;50.038;20.000;2024-01-15T13:51:24;9.60;;;6.00;;
48897;SDS011;34713;50.038;20.000;2024-01-15T13:53:51;10.30;;;6.20;;
48897;SDS011;34713;50.038;20.000;2024-01-15T13:56:19;10.20;;;5.90;;
48897;SDS011;34713;50.038;20.000;2024-01-15T13:58:50;9.80;;;5.70;;
48897;SDS011;34713;50.038;20.000;2024-01-15T14:01:20;9.30;;;5.50;;
48897;SDS011;34713;50.038;20.000;2024-01-15T14:03:47;10.80;;;6.20;;
48897;SDS011;34713;50.038;20.000;2024-01-15T14:06:14;9.10;;;5.20;;
48897;SDS011;34713;50.038;20.000;2024-01-15T14:08:40;9.20;;;5.50;;
48897;SDS011;34713;50.038;20.000;2024-01-15T14:11:07;10.10;;;5.10;;
48897;SDS011;34713;50.038;20.000;2024-01-15T14:13:34;9.50;;;5.30;;
48897;SDS011;34713;50.038;20.000;2024-01-15T14:16:00;8.70;;;5.00;;
48897;SDS011;34713;50.038;20.000;2024-01-15T14:18:27;10.30;;;5.90;;
48897;SDS011;34713;50.038;20.000;2024-01-15T14:20:54;8.60;;;5.20;;
48897;SDS011;34713;50.038;20.000;2024-01-15T14:23:20;9.00;;;6.10;;
48897;SDS011;34713;50.038;20.000;2024-01-15T14:25:47;11.30;;;5.80;;
48897;SDS011;34713;50.038;20.000;2024-01-15T14:28:14;9.30;;;5.00;;
48897;SDS011;34713;50.038;20.000;2024-01-15T14:30:41;8.90;;;5.10;;
48897;SDS011;34713;50.038;20.000;2024-01-15T14:33:07;11.60;;;5.90;;
48897;SDS011;34713;50.038;20.000;2024-01-15T14:35:34;9.90;;;5.30;;
48897;SDS011;34713;50.038;20.000;2024-01-15T14:38:01;11.60;;;5.80;;
48897;SDS011;34713;50.038;20.000;2024-01-15T14:40:35;10.90;;;5.90;;
48897;SDS011;34713;50.038;20.000;2024-01-15T14:43:04;10.40;;;6.20;;
48897;SDS011;34713;50.038;20.000;2024-01-15T14:45:31;11.40;;;5.90;;
48897;SDS011;34713;50.038;20.000;2024-01-15T14:47:57;9.60;;;5.20;;
48897;SDS011;34713;50.038;20.000;2024-01-15T14:50:24;10.50;;;5.20;;
48897;SDS011;34713;50.038;20.000;2024-01-15T14:52:51;9.50;;;5.80;;
48897;SDS011;34713;50.038;20.000;2024-01-15T14:55:21;9.40;;;5.70;;
48897;SDS011;34713;50.038;20.000;2024-01-15T14:57:49;12.10;;;5.90;;
48897;SDS011;34713;50.038;20.000;2024-01-15T15:00:16;10.40;;;5.70;;